Terminal Aerodrome Forecast
Issued by NWS

Home | Current Version | Previous Version | Text Only | Print | Product List | Glossary On
Versions: 1 2 3 4 5 6 7 8 9 10 11 12 13 14 15 16 17 18 19 20
835
FTUS43 KIND 291722
TAFLAF
TAF
KLAF 291722Z 2918/3018 26006KT P6SM VCTS SCT020CB BKN080
     FM300100 30004KT P6SM SCT080 SCT250
      TEMPO 3004/3008 4SM BR
     FM300800 00000KT 3SM BR BKN004
     FM301500 29007KT P6SM SCT015 SCT250=

USA.gov is the U.S. government's official web portal to all federal, state and local government web resources and services.